sensor_id;sensor_type;location;lat;lon;timestamp;pressure;altitude;pressure_sealevel;temperature;humidity
54816;BME280;40715;55.752;37.884;2023-05-29T00:00:50;99245.81;;;28.99;23.39
54816;BME280;40715;55.752;37.884;2023-05-29T00:03:18;99246.69;;;28.99;23.33
54816;BME280;40715;55.752;37.884;2023-05-29T00:05:45;99247.69;;;28.98;23.23
54816;BME280;40715;55.752;37.884;2023-05-29T00:08:12;99247.69;;;28.98;23.36
54816;BME280;40715;55.752;37.884;2023-05-29T00:10:39;99252.94;;;29.00;23.30
54816;BME280;40715;55.752;37.884;2023-05-29T00:13:07;99248.53;;;28.99;23.26
54816;BME280;40715;55.752;37.884;2023-05-29T00:15:34;99254.81;;;28.99;23.32
54816;BME280;40715;55.752;37.884;2023-05-29T00:18:02;99258.53;;;28.98;23.50
54816;BME280;40715;55.752;37.884;2023-05-29T00:20:29;99268.38;;;28.99;23.25
54816;BME280;40715;55.752;37.884;2023-05-29T00:22:56;99258.69;;;28.97;23.27
54816;BME280;40715;55.752;37.884;2023-05-29T00:25:24;99266.81;;;28.97;23.33
54816;BME280;40715;55.752;37.884;2023-05-29T00:27:51;99264.28;;;28.95;23.38
54816;BME280;40715;55.752;37.884;2023-05-29T00:30:18;99269.69;;;28.95;23.29
54816;BME280;40715;55.752;37.884;2023-05-29T00:32:45;99272.41;;;28.95;23.17
54816;BME280;40715;55.752;37.884;2023-05-29T00:35:13;99265.13;;;28.96;23.30
54816;BME280;40715;55.752;37.884;2023-05-29T00:37:40;99268.88;;;28.95;23.25
54816;BME280;40715;55.752;37.884;2023-05-29T00:40:07;99270.03;;;28.92;23.21
54816;BME280;40715;55.752;37.884;2023-05-29T00:42:34;99270.72;;;28.94;23.27
54816;BME280;40715;55.752;37.884;2023-05-29T00:45:02;99270.72;;;28.94;23.22
54816;BME280;40715;55.752;37.884;2023-05-29T00:47:31;99265.28;;;28.94;23.19
54816;BME280;40715;55.752;37.884;2023-05-29T00:49:58;99271.72;;;28.93;23.28
54816;BME280;40715;55.752;37.884;2023-05-29T00:52:26;99270.03;;;28.92;23.19
54816;BME280;40715;55.752;37.884;2023-05-29T00:54:54;99262.06;;;28.90;23.17
54816;BME280;40715;55.752;37.884;2023-05-29T00:57:22;99263.91;;;28.90;23.19
54816;BME280;40715;55.752;37.884;2023-05-29T00:59:50;99270.19;;;28.90;23.28
54816;BME280;40715;55.752;37.884;2023-05-29T01:02:18;99279.16;;;28.91;23.09
54816;BME280;40715;55.752;37.884;2023-05-29T01:04:46;99275.44;;;28.92;23.18
54816;BME280;40715;55.752;37.884;2023-05-29T01:07:14;99282.88;;;28.90;23.15
54816;BME280;40715;55.752;37.884;2023-05-29T01:09:42;99277.63;;;28.88;23.17
54816;BME280;40715;55.752;37.884;2023-05-29T01:15:06;99279.84;;;28.93;23.21
54816;BME280;40715;55.752;37.884;2023-05-29T01:18:28;99285.25;;;28.93;23.04
54816;BME280;40715;55.752;37.884;2023-05-29T01:20:42;99290.41;;;28.96;23.14
54816;BME280;40715;55.752;37.884;2023-05-29T01:23:28;99288.13;;;28.91;22.86
54816;BME280;40715;55.752;37.884;2023-05-29T01:26:11;99287.97;;;28.93;23.25
54816;BME280;40715;55.752;37.884;2023-05-29T01:28:51;99287.31;;;28.91;23.19
54816;BME280;40715;55.752;37.884;2023-05-29T01:31:23;99293.72;;;28.90;23.15
54816;BME280;40715;55.752;37.884;2023-05-29T01:34:00;99295.44;;;28.91;23.03
54816;BME280;40715;55.752;37.884;2023-05-29T01:36:28;99292.88;;;28.89;22.97
54816;BME280;40715;55.752;37.884;2023-05-29T01:38:57;99296.09;;;28.85;23.16
54816;BME280;40715;55.752;37.884;2023-05-29T01:41:25;99297.75;;;28.86;23.23
54816;BME280;40715;55.752;37.884;2023-05-29T01:43:53;99297.59;;;28.87;23.07
54816;BME280;40715;55.752;37.884;2023-05-29T01:46:21;99297.75;;;28.86;23.14
54816;BME280;40715;55.752;37.884;2023-05-29T01:48:49;99299.47;;;28.87;23.10
54816;BME280;40715;55.752;37.884;2023-05-29T01:51:16;99302.91;;;28.89;23.04
54816;BME280;40715;55.752;37.884;2023-05-29T01:53:44;99304.56;;;28.90;23.07
54816;BME280;40715;55.752;37.884;2023-05-29T01:56:11;99303.34;;;28.84;23.05
54816;BME280;40715;55.752;37.884;2023-05-29T01:58:39;99298.56;;;28.78;23.17
54816;BME280;40715;55.752;37.884;2023-05-29T02:01:07;99298.56;;;28.78;23.25
54816;BME280;40715;55.752;37.884;2023-05-29T02:03:34;99296.38;;;28.82;23.15
54816;BME280;40715;55.752;37.884;2023-05-29T02:06:02;99301.69;;;28.91;23.05
54816;BME280;40715;55.752;37.884;2023-05-29T02:08:29;99306.81;;;28.95;22.98
54816;BME280;40715;55.752;37.884;2023-05-29T02:10:56;99306.50;;;28.98;23.03
54816;BME280;40715;55.752;37.884;2023-05-29T02:13:23;99308.88;;;29.01;23.03
54816;BME280;40715;55.752;37.884;2023-05-29T02:15:50;99308.72;;;29.02;23.15
54816;BME280;40715;55.752;37.884;2023-05-29T02:18:18;99312.28;;;29.03;22.92
54816;BME280;40715;55.752;37.884;2023-05-29T02:20:46;99303.13;;;29.04;22.90
54816;BME280;40715;55.752;37.884;2023-05-29T02:23:13;99315.53;;;29.06;22.85
54816;BME280;40715;55.752;37.884;2023-05-29T02:25:42;99317.38;;;29.06;23.07
54816;BME280;40715;55.752;37.884;2023-05-29T02:28:09;99315.38;;;29.08;22.95
54816;BME280;40715;55.752;37.884;2023-05-29T02:30:36;99321.47;;;29.10;22.80
54816;BME280;40715;55.752;37.884;2023-05-29T02:33:03;99318.75;;;29.10;22.75
54816;BME280;40715;55.752;37.884;2023-05-29T02:35:30;99314.88;;;29.13;22.84
54816;BME280;40715;55.752;37.884;2023-05-29T02:37:57;99324.72;;;29.14;22.86
54816;BME280;40715;55.752;37.884;2023-05-29T02:40:24;99315.56;;;29.15;23.00
54816;BME280;40715;55.752;37.884;2023-05-29T02:42:52;99314.25;;;29.19;22.80
54816;BME280;40715;55.752;37.884;2023-05-29T02:45:19;99309.31;;;29.22;22.81
54816;BME280;40715;55.752;37.884;2023-05-29T02:47:46;99314.63;;;29.24;22.83
54816;BME280;40715;55.752;37.884;2023-05-29T02:50:13;99321.75;;;29.25;22.77
54816;BME280;40715;55.752;37.884;2023-05-29T02:52:41;99323.13;;;29.29;22.61
54816;BME280;40715;55.752;37.884;2023-05-29T02:55:08;99314.84;;;29.31;22.89
54816;BME280;40715;55.752;37.884;2023-05-29T02:57:35;99328.91;;;29.34;22.88
54816;BME280;40715;55.752;37.884;2023-05-29T03:00:03;99320.47;;;29.37;22.85
54816;BME280;40715;55.752;37.884;2023-05-29T03:02:35;99317.41;;;29.40;22.96
54816;BME280;40715;55.752;37.884;2023-05-29T03:05:03;99325.22;;;29.43;23.00
54816;BME280;40715;55.752;37.884;2023-05-29T03:07:30;99329.16;;;29.49;23.10
54816;BME280;40715;55.752;37.884;2023-05-29T03:09:57;99332.38;;;29.53;23.33
54816;BME280;40715;55.752;37.884;2023-05-29T03:12:26;99334.63;;;29.57;23.35
54816;BME280;40715;55.752;37.884;2023-05-29T03:14:54;99333.41;;;29.60;23.23
54816;BME280;40715;55.752;37.884;2023-05-29T03:17:23;99332.94;;;29.65;23.23
54816;BME280;40715;55.752;37.884;2023-05-29T03:19:50;99331.44;;;29.70;23.44
54816;BME280;40715;55.752;37.884;2023-05-29T03:22:18;99335.66;;;29.73;23.67
54816;BME280;40715;55.752;37.884;2023-05-29T03:24:45;99337.03;;;29.77;23.86
54816;BME280;40715;55.752;37.884;2023-05-29T03:27:12;99344.72;;;29.82;23.58
54816;BME280;40715;55.752;37.884;2023-05-29T03:29:39;99346.09;;;29.86;23.81
54816;BME280;40715;55.752;37.884;2023-05-29T03:32:06;99351.03;;;29.90;23.80
54816;BME280;40715;55.752;37.884;2023-05-29T03:34:33;99353.41;;;29.93;23.81
54816;BME280;40715;55.752;37.884;2023-05-29T03:37:00;99358.69;;;29.95;24.09
54816;BME280;40715;55.752;37.884;2023-05-29T03:39:28;99363.59;;;30.00;23.75
54816;BME280;40715;55.752;37.884;2023-05-29T03:41:56;99362.09;;;30.05;23.72
54816;BME280;40715;55.752;37.884;2023-05-29T03:44:23;99352.59;;;30.09;23.86
54816;BME280;40715;55.752;37.884;2023-05-29T03:46:51;99360.25;;;30.14;24.03
54816;BME280;40715;55.752;37.884;2023-05-29T03:49:18;99362.97;;;30.22;23.89
54816;BME280;40715;55.752;37.884;2023-05-29T03:51:45;99370.94;;;30.24;24.05
54816;BME280;40715;55.752;37.884;2023-05-29T03:54:12;99372.84;;;30.32;23.79
54816;BME280;40715;55.752;37.884;2023-05-29T03:56:39;99380.31;;;30.38;24.08
54816;BME280;40715;55.752;37.884;2023-05-29T03:59:06;99364.41;;;30.43;24.01
54816;BME280;40715;55.752;37.884;2023-05-29T04:01:33;99366.44;;;30.49;23.92
54816;BME280;40715;55.752;37.884;2023-05-29T04:04:00;99382.06;;;30.55;24.18
54816;BME280;40715;55.752;37.884;2023-05-29T04:06:27;99390.22;;;30.63;24.03
54816;BME280;40715;55.752;37.884;2023-05-29T04:08:54;99381.38;;;30.70;24.13
54816;BME280;40715;55.752;37.884;2023-05-29T04:11:22;99378.66;;;30.78;24.52
54816;BME280;40715;55.752;37.884;2023-05-29T04:13:49;99377.66;;;30.87;24.29
54816;BME280;40715;55.752;37.884;2023-05-29T04:16:16;99389.84;;;30.99;24.20
54816;BME280;40715;55.752;37.884;2023-05-29T04:18:43;99386.13;;;31.09;24.29
54816;BME280;40715;55.752;37.884;2023-05-29T04:21:11;99391.03;;;31.22;24.29
54816;BME280;40715;55.752;37.884;2023-05-29T04:23:38;99395.44;;;31.31;24.14
54816;BME280;40715;55.752;37.884;2023-05-29T04:26:05;99389.59;;;31.42;24.01
54816;BME280;40715;55.752;37.884;2023-05-29T04:28:32;99386.88;;;31.50;24.14
54816;BME280;40715;55.752;37.884;2023-05-29T04:30:59;99392.81;;;31.62;23.93
54816;BME280;40715;55.752;37.884;2023-05-29T04:33:27;99393.47;;;31.73;23.89
54816;BME280;40715;55.752;37.884;2023-05-29T04:35:56;99387.94;;;31.81;24.11
54816;BME280;40715;55.752;37.884;2023-05-29T04:38:23;99388.44;;;31.93;23.89
54816;BME280;40715;55.752;37.884;2023-05-29T04:40:53;99400.13;;;32.01;23.48
54816;BME280;40715;55.752;37.884;2023-05-29T04:43:24;99406.19;;;32.12;23.56
54816;BME280;40715;55.752;37.884;2023-05-29T04:45:55;99401.19;;;32.24;23.24
54816;BME280;40715;55.752;37.884;2023-05-29T04:48:22;99396.38;;;32.34;23.54
54816;BME280;40715;55.752;37.884;2023-05-29T04:50:49;99401.59;;;32.44;23.52
54816;BME280;40715;55.752;37.884;2023-05-29T04:53:16;99399.47;;;32.54;23.25
54816;BME280;40715;55.752;37.884;2023-05-29T04:55:43;99403.63;;;32.65;23.15
54816;BME280;40715;55.752;37.884;2023-05-29T04:58:10;99406.13;;;32.75;22.85
54816;BME280;40715;55.752;37.884;2023-05-29T05:00:39;99408.81;;;32.83;22.88
54816;BME280;40715;55.752;37.884;2023-05-29T05:03:06;99420.50;;;32.92;22.66
54816;BME280;40715;55.752;37.884;2023-05-29T05:05:33;99418.53;;;33.00;22.96
54816;BME280;40715;55.752;37.884;2023-05-29T05:08:00;99423.09;;;33.08;22.52
54816;BME280;40715;55.752;37.884;2023-05-29T05:10:27;99418.56;;;33.15;22.55
54816;BME280;40715;55.752;37.884;2023-05-29T05:12:54;99414.09;;;33.23;22.36
54816;BME280;40715;55.752;37.884;2023-05-29T05:15:21;99420.50;;;33.30;22.28
54816;BME280;40715;55.752;37.884;2023-05-29T05:17:48;99419.56;;;33.37;22.55
54816;BME280;40715;55.752;37.884;2023-05-29T05:20:16;99415.41;;;33.42;22.59
54816;BME280;40715;55.752;37.884;2023-05-29T05:22:43;99421.81;;;33.49;22.40
54816;BME280;40715;55.752;37.884;2023-05-29T05:25:10;99417.69;;;33.53;22.21
54816;BME280;40715;55.752;37.884;2023-05-29T05:27:38;99424.84;;;33.54;22.45
54816;BME280;40715;55.752;37.884;2023-05-29T05:30:06;99426.16;;;33.58;22.65
54816;BME280;40715;55.752;37.884;2023-05-29T05:32:33;99414.47;;;33.64;22.18
54816;BME280;40715;55.752;37.884;2023-05-29T05:35:01;99417.31;;;33.71;22.52
54816;BME280;40715;55.752;37.884;2023-05-29T05:37:30;99413.50;;;33.72;22.32
54816;BME280;40715;55.752;37.884;2023-05-29T05:39:57;99420.31;;;33.76;22.27
54816;BME280;40715;55.752;37.884;2023-05-29T05:42:28;99429.19;;;33.78;22.44
54816;BME280;40715;55.752;37.884;2023-05-29T05:44:55;99423.34;;;33.81;22.06
54816;BME280;40715;55.752;37.884;2023-05-29T05:47:22;99422.31;;;33.82;21.89
54816;BME280;40715;55.752;37.884;2023-05-29T05:49:49;99428.91;;;33.88;22.24
54816;BME280;40715;55.752;37.884;2023-05-29T05:52:18;99424.91;;;33.91;22.16
54816;BME280;40715;55.752;37.884;2023-05-29T05:54:45;99431.91;;;33.93;22.05
54816;BME280;40715;55.752;37.884;2023-05-29T05:57:13;99433.22;;;33.97;21.90
54816;BME280;40715;55.752;37.884;2023-05-29T05:59:40;99433.69;;;34.01;22.14
54816;BME280;40715;55.752;37.884;2023-05-29T06:02:07;99431.69;;;34.10;21.64
54816;BME280;40715;55.752;37.884;2023-05-29T06:04:35;99433.25;;;34.19;21.91
54816;BME280;40715;55.752;37.884;2023-05-29T06:07:02;99425.84;;;34.28;21.87
54816;BME280;40715;55.752;37.884;2023-05-29T06:09:30;99437.09;;;34.39;21.50
54816;BME280;40715;55.752;37.884;2023-05-29T06:11:57;99436.19;;;34.54;21.31
54816;BME280;40715;55.752;37.884;2023-05-29T06:14:24;99435.88;;;34.64;21.30
54816;BME280;40715;55.752;37.884;2023-05-29T06:16:52;99445.63;;;34.73;21.15
54816;BME280;40715;55.752;37.884;2023-05-29T06:19:20;99432.53;;;34.83;21.10
54816;BME280;40715;55.752;37.884;2023-05-29T06:21:47;99430.50;;;34.92;20.80
54816;BME280;40715;55.752;37.884;2023-05-29T06:24:14;99434.34;;;35.04;20.66
54816;BME280;40715;55.752;37.884;2023-05-29T06:26:42;99434.22;;;35.13;20.66
54816;BME280;40715;55.752;37.884;2023-05-29T06:29:09;99444.00;;;35.22;20.65
54816;BME280;40715;55.752;37.884;2023-05-29T06:31:36;99449.13;;;35.32;20.37
54816;BME280;40715;55.752;37.884;2023-05-29T06:34:03;99440.75;;;35.40;20.14
54816;BME280;40715;55.752;37.884;2023-05-29T06:36:30;99441.84;;;35.46;20.00
54816;BME280;40715;55.752;37.884;2023-05-29T06:38:59;99452.19;;;35.50;19.82
54816;BME280;40715;55.752;37.884;2023-05-29T06:41:26;99452.25;;;35.57;19.88
54816;BME280;40715;55.752;37.884;2023-05-29T06:43:53;99459.84;;;35.62;19.77
54816;BME280;40715;55.752;37.884;2023-05-29T06:46:20;99453.59;;;35.68;19.58
54816;BME280;40715;55.752;37.884;2023-05-29T06:48:47;99465.63;;;35.73;19.76
54816;BME280;40715;55.752;37.884;2023-05-29T06:51:14;99465.69;;;35.80;19.53
54816;BME280;40715;55.752;37.884;2023-05-29T06:53:41;99461.50;;;35.84;19.62
54816;BME280;40715;55.752;37.884;2023-05-29T06:56:09;99462.78;;;35.88;19.79
54816;BME280;40715;55.752;37.884;2023-05-29T06:58:36;99460.28;;;35.93;19.46
54816;BME280;40715;55.752;37.884;2023-05-29T07:01:03;99459.66;;;35.98;19.50
54816;BME280;40715;55.752;37.884;2023-05-29T07:03:34;99464.53;;;36.03;19.40
54816;BME280;40715;55.752;37.884;2023-05-29T07:06:01;99463.06;;;36.07;19.48
54816;BME280;40715;55.752;37.884;2023-05-29T07:08:28;99458.44;;;36.07;19.62
54816;BME280;40715;55.752;37.884;2023-05-29T07:10:55;99462.06;;;36.15;19.52
54816;BME280;40715;55.752;37.884;2023-05-29T07:13:24;99457.88;;;36.19;19.36
54816;BME280;40715;55.752;37.884;2023-05-29T07:15:52;99461.25;;;36.27;19.19
54816;BME280;40715;55.752;37.884;2023-05-29T07:18:19;99454.75;;;36.35;19.25
54816;BME280;40715;55.752;37.884;2023-05-29T07:20:46;99454.59;;;36.43;19.23
54816;BME280;40715;55.752;37.884;2023-05-29T07:23:13;99464.72;;;36.50;18.77
54816;BME280;40715;55.752;37.884;2023-05-29T07:25:40;99464.72;;;36.50;18.91
54816;BME280;40715;55.752;37.884;2023-05-29T07:28:08;99460.31;;;36.49;18.86
54816;BME280;40715;55.752;37.884;2023-05-29T07:30:47;99461.34;;;36.48;18.60
54816;BME280;40715;55.752;37.884;2023-05-29T07:33:14;99451.84;;;36.43;18.79
54816;BME280;40715;55.752;37.884;2023-05-29T07:35:41;99451.00;;;36.43;18.56
54816;BME280;40715;55.752;37.884;2023-05-29T07:38:08;99447.63;;;36.48;18.96
54816;BME280;40715;55.752;37.884;2023-05-29T07:40:35;99453.53;;;36.51;18.86
54816;BME280;40715;55.752;37.884;2023-05-29T07:43:03;99453.75;;;36.56;18.70
54816;BME280;40715;55.752;37.884;2023-05-29T07:45:30;99447.84;;;36.59;18.53
54816;BME280;40715;55.752;37.884;2023-05-29T07:47:57;99450.19;;;36.62;18.30
54816;BME280;40715;55.752;37.884;2023-05-29T07:50:24;99448.72;;;36.67;18.14
54816;BME280;40715;55.752;37.884;2023-05-29T07:52:51;99448.28;;;36.70;18.28
54816;BME280;40715;55.752;37.884;2023-05-29T07:55:19;99447.03;;;36.72;17.85
54816;BME280;40715;55.752;37.884;2023-05-29T07:57:46;99453.34;;;36.73;18.36
54816;BME280;40715;55.752;37.884;2023-05-29T08:00:13;99462.66;;;36.72;17.82
54816;BME280;40715;55.752;37.884;2023-05-29T08:02:41;99470.03;;;36.71;18.12
54816;BME280;40715;55.752;37.884;2023-05-29T08:05:12;99468.38;;;36.70;17.88
54816;BME280;40715;55.752;37.884;2023-05-29T08:07:40;99464.16;;;36.74;17.94
54816;BME280;40715;55.752;37.884;2023-05-29T08:10:08;99464.59;;;36.78;17.90
54816;BME280;40715;55.752;37.884;2023-05-29T08:12:35;99463.13;;;36.82;18.37
54816;BME280;40715;55.752;37.884;2023-05-29T08:15:03;99465.44;;;36.85;17.88
54816;BME280;40715;55.752;37.884;2023-05-29T08:17:30;99470.28;;;36.90;18.06
54816;BME280;40715;55.752;37.884;2023-05-29T08:19:57;99469.66;;;36.88;17.83
54816;BME280;40715;55.752;37.884;2023-05-29T08:22:29;99455.72;;;36.89;18.23
54816;BME280;40715;55.752;37.884;2023-05-29T08:24:56;99451.72;;;36.92;17.94
54816;BME280;40715;55.752;37.884;2023-05-29T08:27:23;99458.69;;;36.94;17.78
54816;BME280;40715;55.752;37.884;2023-05-29T08:29:50;99462.06;;;36.96;17.81
54816;BME280;40715;55.752;37.884;2023-05-29T08:32:18;99457.22;;;36.99;17.61
54816;BME280;40715;55.752;37.884;2023-05-29T08:34:45;99456.38;;;36.98;17.32
54816;BME280;40715;55.752;37.884;2023-05-29T08:37:13;99466.72;;;36.96;17.68
54816;BME280;40715;55.752;37.884;2023-05-29T08:39:40;99456.78;;;36.95;17.48
54816;BME280;40715;55.752;37.884;2023-05-29T08:42:12;99455.50;;;36.91;17.76
54816;BME280;40715;55.752;37.884;2023-05-29T08:44:40;99454.91;;;36.89;17.30
54816;BME280;40715;55.752;37.884;2023-05-29T08:47:07;99449.19;;;36.90;17.02
54816;BME280;40715;55.752;37.884;2023-05-29T08:49:41;99451.94;;;36.90;17.58
54816;BME280;40715;55.752;37.884;2023-05-29T08:52:20;99442.22;;;36.88;17.56
54816;BME280;40715;55.752;37.884;2023-05-29T08:54:47;99444.94;;;36.81;17.48
54816;BME280;40715;55.752;37.884;2023-05-29T08:57:14;99443.25;;;36.73;17.48
54816;BME280;40715;55.752;37.884;2023-05-29T08:59:43;99437.50;;;36.68;17.61
54816;BME280;40715;55.752;37.884;2023-05-29T09:02:11;99448.50;;;36.61;17.48
54816;BME280;40715;55.752;37.884;2023-05-29T09:04:41;99443.41;;;36.58;17.83
54816;BME280;40715;55.752;37.884;2023-05-29T09:07:08;99435.81;;;36.54;18.00
54816;BME280;40715;55.752;37.884;2023-05-29T09:09:36;99440.88;;;36.50;17.53
54816;BME280;40715;55.752;37.884;2023-05-29T09:12:04;99440.03;;;36.50;17.70
54816;BME280;40715;55.752;37.884;2023-05-29T09:14:36;99428.84;;;36.44;17.60
54816;BME280;40715;55.752;37.884;2023-05-29T09:17:04;99426.91;;;36.38;17.73
54816;BME280;40715;55.752;37.884;2023-05-29T09:19:32;99431.53;;;36.31;17.73
54816;BME280;40715;55.752;37.884;2023-05-29T09:22:21;99426.84;;;36.25;17.68
54816;BME280;40715;55.752;37.884;2023-05-29T09:24:48;99418.41;;;36.20;17.38
54816;BME280;40715;55.752;37.884;2023-05-29T09:27:15;99419.84;;;36.09;17.59
54816;BME280;40715;55.752;37.884;2023-05-29T09:29:44;99421.72;;;36.02;17.74
54816;BME280;40715;55.752;37.884;2023-05-29T09:32:15;99418.94;;;35.95;17.59
54816;BME280;40715;55.752;37.884;2023-05-29T09:34:44;99416.38;;;35.87;17.63
54816;BME280;40715;55.752;37.884;2023-05-29T09:37:12;99410.88;;;35.80;17.69
54816;BME280;40715;55.752;37.884;2023-05-29T09:39:47;99407.00;;;35.68;17.70
54816;BME280;40715;55.752;37.884;2023-05-29T09:42:15;99414.75;;;35.57;17.83
54816;BME280;40715;55.752;37.884;2023-05-29T09:44:48;99416.78;;;35.49;17.65
54816;BME280;40715;55.752;37.884;2023-05-29T09:47:17;99406.22;;;35.39;17.67
54816;BME280;40715;55.752;37.884;2023-05-29T09:49:45;99410.78;;;35.32;17.94
54816;BME280;40715;55.752;37.884;2023-05-29T09:52:20;99404.59;;;35.23;18.00
54816;BME280;40715;55.752;37.884;2023-05-29T09:54:50;99405.41;;;35.17;17.86
54816;BME280;40715;55.752;37.884;2023-05-29T09:57:17;99401.78;;;35.09;17.83
54816;BME280;40715;55.752;37.884;2023-05-29T09:59:45;99399.44;;;35.06;17.75
54816;BME280;40715;55.752;37.884;2023-05-29T10:02:15;99397.31;;;35.02;17.49
54816;BME280;40715;55.752;37.884;2023-05-29T10:04:43;99397.88;;;34.97;17.83
54816;BME280;40715;55.752;37.884;2023-05-29T10:07:22;99399.56;;;34.98;17.87
54816;BME280;40715;55.752;37.884;2023-05-29T10:09:55;99396.34;;;34.88;17.67
54816;BME280;40715;55.752;37.884;2023-05-29T10:12:36;99394.00;;;34.85;17.82
54816;BME280;40715;55.752;37.884;2023-05-29T10:15:11;99383.81;;;34.79;17.90
54816;BME280;40715;55.752;37.884;2023-05-29T10:17:49;99393.06;;;34.78;17.67
54816;BME280;40715;55.752;37.884;2023-05-29T10:20:19;99385.84;;;34.70;17.37
54816;BME280;40715;55.752;37.884;2023-05-29T10:22:49;99384.66;;;34.57;16.78
54816;BME280;40715;55.752;37.884;2023-05-29T10:25:18;99388.59;;;34.48;16.63
54816;BME280;40715;55.752;37.884;2023-05-29T10:27:48;99384.69;;;34.36;16.57
54816;BME280;40715;55.752;37.884;2023-05-29T10:30:20;99383.38;;;34.32;16.25
54816;BME280;40715;55.752;37.884;2023-05-29T10:33:33;99387.00;;;34.39;16.15
54816;BME280;40715;55.752;37.884;2023-05-29T10:36:18;99385.06;;;34.33;15.82
54816;BME280;40715;55.752;37.884;2023-05-29T10:38:46;99380.59;;;34.10;15.92
54816;BME280;40715;55.752;37.884;2023-05-29T10:43:57;99377.59;;;34.05;16.22
54816;BME280;40715;55.752;37.884;2023-05-29T10:49:18;99368.09;;;34.01;16.34
54816;BME280;40715;55.752;37.884;2023-05-29T10:51:52;99366.50;;;33.92;16.31
54816;BME280;40715;55.752;37.884;2023-05-29T10:54:22;99360.31;;;33.83;16.31
54816;BME280;40715;55.752;37.884;2023-05-29T10:57:00;99367.47;;;33.84;16.38
54816;BME280;40715;55.752;37.884;2023-05-29T10:59:28;99372.03;;;33.77;16.26
54816;BME280;40715;55.752;37.884;2023-05-29T11:01:56;99365.41;;;33.71;16.41
54816;BME280;40715;55.752;37.884;2023-05-29T11:06:54;99362.22;;;33.52;15.99
54816;BME280;40715;55.752;37.884;2023-05-29T11:09:36;99370.59;;;33.51;15.75
54816;BME280;40715;55.752;37.884;2023-05-29T11:12:24;99357.69;;;33.45;15.93
54816;BME280;40715;55.752;37.884;2023-05-29T11:15:05;99349.13;;;33.33;16.16
54816;BME280;40715;55.752;37.884;2023-05-29T11:20:13;99352.25;;;33.30;16.65
54816;BME280;40715;55.752;37.884;2023-05-29T11:22:59;99359.88;;;33.34;16.67
54816;BME280;40715;55.752;37.884;2023-05-29T11:25:28;99353.19;;;33.37;16.96
54816;BME280;40715;55.752;37.884;2023-05-29T11:27:55;99352.50;;;33.35;17.20
54816;BME280;40715;55.752;37.884;2023-05-29T11:30:23;99347.44;;;33.32;16.76
54816;BME280;40715;55.752;37.884;2023-05-29T11:32:52;99338.13;;;33.26;16.95
54816;BME280;40715;55.752;37.884;2023-05-29T11:35:21;99345.91;;;33.29;17.37
54816;BME280;40715;55.752;37.884;2023-05-29T11:37:49;99340.31;;;33.31;17.41
54816;BME280;40715;55.752;37.884;2023-05-29T11:40:18;99341.13;;;33.31;17.41
54816;BME280;40715;55.752;37.884;2023-05-29T11:42:46;99335.00;;;33.29;17.31
54816;BME280;40715;55.752;37.884;2023-05-29T11:45:24;99331.06;;;33.32;17.30
54816;BME280;40715;55.752;37.884;2023-05-29T11:47:52;99332.00;;;33.91;16.65
54816;BME280;40715;55.752;37.884;2023-05-29T11:50:37;99329.94;;;33.41;17.26
54816;BME280;40715;55.752;37.884;2023-05-29T11:53:06;99325.41;;;33.18;16.68
54816;BME280;40715;55.752;37.884;2023-05-29T11:55:37;99326.31;;;33.11;16.64
54816;BME280;40715;55.752;37.884;2023-05-29T11:58:04;99325.88;;;33.07;16.97
54816;BME280;40715;55.752;37.884;2023-05-29T12:00:33;99326.69;;;33.08;17.20
54816;BME280;40715;55.752;37.884;2023-05-29T12:03:02;99322.09;;;33.08;17.65
54816;BME280;40715;55.752;37.884;2023-05-29T12:05:45;99324.19;;;33.21;17.78
54816;BME280;40715;55.752;37.884;2023-05-29T12:08:12;99321.16;;;33.16;17.90
54816;BME280;40715;55.752;37.884;2023-05-29T12:10:49;99311.75;;;33.18;17.91
54816;BME280;40715;55.752;37.884;2023-05-29T12:13:21;99311.94;;;33.17;17.81
54816;BME280;40715;55.752;37.884;2023-05-29T12:15:49;99314.19;;;33.13;17.86
54816;BME280;40715;55.752;37.884;2023-05-29T12:18:18;99310.22;;;33.16;17.76
54816;BME280;40715;55.752;37.884;2023-05-29T12:20:45;99316.38;;;33.18;17.96
54816;BME280;40715;55.752;37.884;2023-05-29T12:23:12;99314.47;;;33.18;18.24
54816;BME280;40715;55.752;37.884;2023-05-29T12:25:39;99312.59;;;33.19;18.08
54816;BME280;40715;55.752;37.884;2023-05-29T12:28:07;99309.84;;;33.19;18.11
54816;BME280;40715;55.752;37.884;2023-05-29T12:30:38;99302.53;;;33.19;18.12
54816;BME280;40715;55.752;37.884;2023-05-29T12:33:06;99303.16;;;33.21;18.25
54816;BME280;40715;55.752;37.884;2023-05-29T12:35:33;99303.38;;;33.20;18.13
54816;BME280;40715;55.752;37.884;2023-05-29T12:38:03;99305.25;;;33.19;18.44
54816;BME280;40715;55.752;37.884;2023-05-29T12:40:32;99302.03;;;33.16;18.51
54816;BME280;40715;55.752;37.884;2023-05-29T12:43:06;99301.59;;;33.12;18.71
54816;BME280;40715;55.752;37.884;2023-05-29T12:45:38;99300.09;;;33.10;18.58
54816;BME280;40715;55.752;37.884;2023-05-29T12:48:06;99299.13;;;33.02;18.42
54816;BME280;40715;55.752;37.884;2023-05-29T12:50:37;99284.44;;;32.89;17.95
54816;BME280;40715;55.752;37.884;2023-05-29T12:53:10;99285.41;;;32.81;17.83
54816;BME280;40715;55.752;37.884;2023-05-29T12:55:41;99282.84;;;32.79;17.95
54816;BME280;40715;55.752;37.884;2023-05-29T12:58:11;99287.16;;;32.74;17.84
54816;BME280;40715;55.752;37.884;2023-05-29T13:00:40;99292.16;;;32.70;17.70
54816;BME280;40715;55.752;37.884;2023-05-29T13:03:08;99285.53;;;32.64;18.26
54816;BME280;40715;55.752;37.884;2023-05-29T13:05:36;99294.34;;;32.66;18.04
54816;BME280;40715;55.752;37.884;2023-05-29T13:08:04;99285.72;;;32.63;17.55
54816;BME280;40715;55.752;37.884;2023-05-29T13:10:35;99293.22;;;32.61;17.66
54816;BME280;40715;55.752;37.884;2023-05-29T13:13:03;99285.78;;;32.55;17.92